createdAt,value
2018-12-31T00:00:06.244Z,5.40
2018-12-31T00:02:34.818Z,5.40
2018-12-31T00:05:03.421Z,5.50
2018-12-31T00:07:31.899Z,5.50
2018-12-31T00:10:00.369Z,5.50
2018-12-31T00:12:28.851Z,5.40
2018-12-31T00:14:57.304Z,5.50
2018-12-31T00:17:25.778Z,5.50
2018-12-31T00:19:54.516Z,5.50
2018-12-31T00:22:22.980Z,5.50
2018-12-31T00:24:51.459Z,5.40
2018-12-31T00:27:19.919Z,5.40
2018-12-31T00:29:48.382Z,5.50
2018-12-31T00:32:16.992Z,5.50
2018-12-31T00:34:45.460Z,5.50
2018-12-31T00:37:14.003Z,5.50
2018-12-31T00:39:42.463Z,5.50
2018-12-31T00:42:10.929Z,5.40
2018-12-31T00:44:39.390Z,5.40
2018-12-31T00:47:07.840Z,5.40
2018-12-31T00:49:36.309Z,5.50
2018-12-31T00:52:04.840Z,5.50
2018-12-31T00:54:33.310Z,5.50
2018-12-31T00:57:01.786Z,5.50
2018-12-31T00:59:30.243Z,5.40
2018-12-31T01:01:58.743Z,5.40
2018-12-31T01:04:27.266Z,5.40
2018-12-31T01:06:55.752Z,5.40
2018-12-31T01:09:24.285Z,5.40
2018-12-31T01:11:52.838Z,5.40
2018-12-31T01:14:21.372Z,5.40
2018-12-31T01:16:49.838Z,5.40
2018-12-31T01:19:18.326Z,5.40
2018-12-31T01:21:46.829Z,5.50
2018-12-31T01:24:15.316Z,5.50
2018-12-31T01:26:43.771Z,5.50
2018-12-31T01:29:12.233Z,5.50
2018-12-31T01:31:40.695Z,5.50
2018-12-31T01:34:09.160Z,5.50
2018-12-31T01:36:37.634Z,5.50
2018-12-31T01:39:06.723Z,5.50
2018-12-31T01:41:35.200Z,5.50
2018-12-31T01:44:03.730Z,5.40
2018-12-31T01:46:32.196Z,5.40
2018-12-31T01:49:00.644Z,5.40
2018-12-31T01:51:29.130Z,5.40
2018-12-31T01:53:57.696Z,5.40
2018-12-31T01:56:26.217Z,5.40
2018-12-31T01:58:54.679Z,5.40
2018-12-31T02:01:23.221Z,5.40
2018-12-31T02:03:51.693Z,5.40
2018-12-31T02:06:20.156Z,5.40
2018-12-31T02:08:48.637Z,5.30
2018-12-31T02:11:17.103Z,5.40
2018-12-31T02:13:45.547Z,5.40
2018-12-31T02:16:14.005Z,5.40
2018-12-31T02:18:42.471Z,5.30
2018-12-31T02:21:10.955Z,5.30
2018-12-31T02:23:39.414Z,5.30
2018-12-31T02:26:07.874Z,5.30
2018-12-31T02:28:36.341Z,5.30
2018-12-31T02:31:04.834Z,5.30
2018-12-31T02:33:33.278Z,5.30
2018-12-31T02:36:01.733Z,5.30
2018-12-31T02:38:30.195Z,5.30
2018-12-31T02:40:58.645Z,5.30
2018-12-31T02:43:27.114Z,5.40
2018-12-31T02:45:55.664Z,5.40
2018-12-31T02:48:36.485Z,5.30
2018-12-31T02:51:34.127Z,5.30
2018-12-31T02:57:03.245Z,5.30
2018-12-31T02:59:52.134Z,5.30
2018-12-31T03:02:31.874Z,5.30
2018-12-31T03:05:22.553Z,5.30
2018-12-31T03:08:07.523Z,5.30
2018-12-31T03:10:42.148Z,5.30
2018-12-31T03:13:23.942Z,5.30
2018-12-31T03:16:10.547Z,5.30
2018-12-31T03:18:52.854Z,5.30
2018-12-31T03:21:38.435Z,5.30
2018-12-31T03:24:15.041Z,5.30
2018-12-31T03:26:47.688Z,5.30
2018-12-31T03:29:23.440Z,5.30
2018-12-31T03:32:05.651Z,5.30
2018-12-31T03:37:39.373Z,5.30
2018-12-31T03:40:16.490Z,5.40
2018-12-31T03:42:51.489Z,5.30
2018-12-31T03:45:38.215Z,5.30
2018-12-31T03:48:14.295Z,5.30
2018-12-31T03:50:49.743Z,5.30
2018-12-31T03:53:29.238Z,5.30
2018-12-31T03:56:19.985Z,5.30
2018-12-31T03:58:54.274Z,5.30
2018-12-31T04:04:27.678Z,5.30
2018-12-31T04:07:04.602Z,5.30
2018-12-31T04:09:41.276Z,5.30
2018-12-31T04:12:15.351Z,5.20
2018-12-31T04:14:54.177Z,5.20
2018-12-31T04:17:25.665Z,5.20
2018-12-31T04:20:06.948Z,5.20
2018-12-31T04:22:44.169Z,5.20
2018-12-31T04:25:34.386Z,5.20
2018-12-31T04:28:13.519Z,5.20
2018-12-31T04:30:55.918Z,5.20
2018-12-31T04:33:33.154Z,5.20
2018-12-31T04:39:10.230Z,5.20
2018-12-31T04:41:49.904Z,5.20
2018-12-31T04:44:23.668Z,5.20
2018-12-31T04:47:00.943Z,5.10
2018-12-31T04:49:43.613Z,5.10
2018-12-31T04:52:16.544Z,5.20
2018-12-31T04:57:48.177Z,5.20
2018-12-31T05:00:24.793Z,5.20
2018-12-31T05:03:03.836Z,5.10
2018-12-31T05:05:37.028Z,5.10
2018-12-31T05:08:11.696Z,5.10
2018-12-31T05:10:59.796Z,5.10
2018-12-31T05:13:37.919Z,5.10
2018-12-31T05:19:09.413Z,5.00
2018-12-31T05:22:05.042Z,5.10
2018-12-31T05:24:39.454Z,5.00
2018-12-31T05:27:22.794Z,5.10
2018-12-31T05:30:00.855Z,5.00
2018-12-31T05:32:34.557Z,5.00
2018-12-31T05:35:30.329Z,5.10
2018-12-31T05:38:15.042Z,5.10
2018-12-31T05:40:51.922Z,5.10
2018-12-31T05:43:30.539Z,5.10
2018-12-31T05:46:10.088Z,5.10
2018-12-31T05:48:50.448Z,5.00
2018-12-31T05:51:40.318Z,5.00
2018-12-31T06:00:05.787Z,5.00
2018-12-31T06:02:42.767Z,5.10
2018-12-31T06:05:24.050Z,5.00
2018-12-31T06:08:01.339Z,5.10
2018-12-31T06:10:58.572Z,5.00
2018-12-31T06:13:50.289Z,5.00
2018-12-31T06:16:10.704Z,5.00
2018-12-31T06:18:53.932Z,5.00
2018-12-31T06:21:27.785Z,5.00
2018-12-31T06:32:36.498Z,5.00
2018-12-31T06:35:19.098Z,5.00
2018-12-31T06:41:02.723Z,5.00
2018-12-31T06:43:28.689Z,5.00
2018-12-31T06:46:02.229Z,5.00
2018-12-31T06:48:41.423Z,5.00
2018-12-31T06:51:15.168Z,5.00
2018-12-31T06:56:48.952Z,5.00
2018-12-31T06:59:32.838Z,5.00
2018-12-31T07:02:21.102Z,5.00
2018-12-31T07:04:54.173Z,5.00
2018-12-31T07:07:31.650Z,5.00
2018-12-31T07:10:10.855Z,5.10
2018-12-31T07:12:41.283Z,5.10
2018-12-31T07:15:17.695Z,5.00
2018-12-31T07:17:51.864Z,5.10
2018-12-31T07:20:26.110Z,5.10
2018-12-31T07:22:57.634Z,5.10
2018-12-31T07:25:32.412Z,5.10
2018-12-31T07:28:11.493Z,5.10
2018-12-31T07:30:47.196Z,5.20
2018-12-31T07:33:23.815Z,5.10
2018-12-31T07:35:59.292Z,5.10
2018-12-31T07:38:33.713Z,5.10
2018-12-31T07:41:05.100Z,5.10
2018-12-31T07:43:36.687Z,5.20
2018-12-31T07:46:21.449Z,5.20
2018-12-31T07:48:53.570Z,5.20
2018-12-31T07:51:30.073Z,5.20
2018-12-31T07:57:02.547Z,5.20
2018-12-31T08:02:26.512Z,5.30
2018-12-31T08:05:00.728Z,5.30
2018-12-31T08:07:36.303Z,5.30
2018-12-31T08:10:15.510Z,5.30
2018-12-31T08:12:55.694Z,5.30
2018-12-31T08:18:23.983Z,5.40
2018-12-31T08:20:59.551Z,5.40
2018-12-31T08:23:35.801Z,5.40
2018-12-31T08:26:08.190Z,5.40
2018-12-31T08:28:42.495Z,5.50
2018-12-31T08:31:18.333Z,5.50
2018-12-31T08:33:50.655Z,5.50
2018-12-31T08:36:32.522Z,5.60
2018-12-31T08:39:12.586Z,5.60
2018-12-31T08:41:43.511Z,5.60
2018-12-31T08:44:20.362Z,5.70
2018-12-31T08:46:55.601Z,5.70
2018-12-31T08:49:25.450Z,5.70
2018-12-31T08:52:01.405Z,5.70
2018-12-31T08:54:34.897Z,5.80
2018-12-31T09:00:02.859Z,5.80
2018-12-31T09:05:26.645Z,5.90
2018-12-31T09:07:55.104Z,5.90
2018-12-31T09:10:23.602Z,6.00
2018-12-31T09:12:52.135Z,6.00
2018-12-31T09:15:20.652Z,5.90
2018-12-31T09:17:49.127Z,5.90
2018-12-31T09:20:17.832Z,5.90
2018-12-31T09:22:46.385Z,6.00
2018-12-31T09:25:14.849Z,6.00
2018-12-31T09:27:43.363Z,6.00
2018-12-31T09:30:11.861Z,6.10
2018-12-31T09:32:40.334Z,6.20
2018-12-31T09:35:08.853Z,6.10
2018-12-31T09:37:40.309Z,6.20
2018-12-31T09:40:08.771Z,6.30
2018-12-31T09:42:37.302Z,6.30
2018-12-31T09:45:05.837Z,6.30
2018-12-31T09:47:34.382Z,6.40
2018-12-31T09:50:02.873Z,6.40
2018-12-31T09:52:31.378Z,6.50
2018-12-31T09:54:59.839Z,6.50
2018-12-31T09:57:28.309Z,6.50
2018-12-31T09:59:56.782Z,6.50
2018-12-31T10:02:25.240Z,6.50
2018-12-31T10:04:53.698Z,6.50
2018-12-31T10:07:22.152Z,6.50
2018-12-31T10:09:50.616Z,6.60
2018-12-31T10:12:19.139Z,6.60
2018-12-31T10:14:47.595Z,6.70
2018-12-31T10:17:18.729Z,6.70
2018-12-31T10:19:47.210Z,6.80
2018-12-31T10:22:15.732Z,6.80
2018-12-31T10:24:44.265Z,6.80
2018-12-31T10:27:12.766Z,6.80
2018-12-31T10:29:41.234Z,7.00
2018-12-31T10:32:09.697Z,7.00
2018-12-31T10:34:38.431Z,7.20
2018-12-31T10:37:06.912Z,7.20
2018-12-31T10:39:35.415Z,7.30
2018-12-31T10:42:03.876Z,7.30
2018-12-31T10:44:32.324Z,7.40
2018-12-31T10:47:00.804Z,7.50
2018-12-31T10:49:29.331Z,7.60
2018-12-31T10:51:57.802Z,7.70
2018-12-31T10:54:26.250Z,7.90
2018-12-31T10:56:54.724Z,7.90
2018-12-31T10:59:23.326Z,8.20
2018-12-31T11:01:52.007Z,8.30
2018-12-31T11:04:20.537Z,8.10
2018-12-31T11:06:49.066Z,8.10
2018-12-31T11:09:17.523Z,7.90
2018-12-31T11:11:46.137Z,8.00
2018-12-31T11:14:15.329Z,7.90
2018-12-31T11:16:43.863Z,7.90
2018-12-31T11:19:12.326Z,7.90
2018-12-31T11:21:40.783Z,8.00
2018-12-31T11:24:09.301Z,8.00
2018-12-31T11:26:37.758Z,8.10
2018-12-31T11:29:06.522Z,8.40
2018-12-31T11:31:34.996Z,8.60
2018-12-31T11:34:03.520Z,8.80
2018-12-31T11:36:32.534Z,8.80
2018-12-31T11:39:01.109Z,8.80
2018-12-31T11:41:29.546Z,8.70
2018-12-31T11:43:58.024Z,8.70
2018-12-31T11:46:26.638Z,8.70
2018-12-31T11:48:55.097Z,8.70
2018-12-31T11:51:23.696Z,8.50
2018-12-31T11:53:52.233Z,8.30
2018-12-31T11:56:20.710Z,8.10
2018-12-31T11:58:49.237Z,8.10
2018-12-31T12:01:17.683Z,8.30
2018-12-31T12:03:46.172Z,8.40
2018-12-31T12:06:14.670Z,8.30
2018-12-31T12:08:43.134Z,8.20
2018-12-31T12:11:11.941Z,8.20
2018-12-31T12:13:40.403Z,8.00
2018-12-31T12:16:08.928Z,8.00
2018-12-31T12:18:40.453Z,7.80
2018-12-31T12:21:08.927Z,7.80
2018-12-31T12:23:37.824Z,7.70
2018-12-31T12:26:06.393Z,7.70
2018-12-31T12:28:34.920Z,7.70
2018-12-31T12:31:03.455Z,7.70
2018-12-31T12:33:32.131Z,7.80
2018-12-31T12:36:00.580Z,7.70
2018-12-31T12:38:29.120Z,7.70
2018-12-31T12:40:57.719Z,7.70
2018-12-31T12:43:26.488Z,7.70
2018-12-31T12:45:54.959Z,7.70
2018-12-31T12:48:23.429Z,7.70
2018-12-31T12:50:51.898Z,7.60
2018-12-31T12:53:20.360Z,7.60
2018-12-31T12:55:48.903Z,7.70
2018-12-31T12:58:17.446Z,7.60
2018-12-31T13:00:46.010Z,7.70
2018-12-31T13:03:14.531Z,7.70
2018-12-31T13:05:43.065Z,7.80
2018-12-31T13:08:11.530Z,7.90
2018-12-31T13:10:40.013Z,8.00
2018-12-31T13:13:11.269Z,8.20
2018-12-31T13:15:39.730Z,8.30
2018-12-31T13:18:08.255Z,8.40
2018-12-31T13:20:36.722Z,8.50
2018-12-31T13:23:05.526Z,8.60
2018-12-31T13:25:34.028Z,8.60
2018-12-31T13:28:02.559Z,8.70
2018-12-31T13:30:32.314Z,8.60
2018-12-31T13:33:01.721Z,8.60
2018-12-31T13:35:30.264Z,8.50
2018-12-31T13:37:58.804Z,8.40
2018-12-31T13:40:27.257Z,8.40
2018-12-31T13:42:55.723Z,8.40
2018-12-31T13:45:24.257Z,8.40
2018-12-31T13:47:53.030Z,8.30
2018-12-31T13:50:21.554Z,8.20
2018-12-31T13:52:52.944Z,8.20
2018-12-31T13:55:21.466Z,8.00
2018-12-31T13:57:49.935Z,8.00
2018-12-31T14:00:18.729Z,7.90
2018-12-31T14:02:47.254Z,7.90
2018-12-31T14:05:16.640Z,7.80
2018-12-31T14:07:45.145Z,7.80
2018-12-31T14:10:13.650Z,7.80
2018-12-31T14:12:42.104Z,7.80
2018-12-31T14:15:10.630Z,7.90
2018-12-31T14:17:39.160Z,7.90
2018-12-31T14:20:07.600Z,8.00
2018-12-31T14:22:36.074Z,8.00
2018-12-31T14:25:04.981Z,8.00
2018-12-31T14:27:33.521Z,8.00
2018-12-31T14:30:02.027Z,7.90
2018-12-31T14:32:30.567Z,8.00
2018-12-31T14:34:59.090Z,7.90
2018-12-31T14:37:27.612Z,7.90
2018-12-31T14:39:56.145Z,7.90
2018-12-31T14:42:24.878Z,7.90
2018-12-31T14:44:53.400Z,7.80
2018-12-31T14:47:21.932Z,7.80
2018-12-31T14:49:50.400Z,7.80
2018-12-31T14:52:19.203Z,7.70
2018-12-31T14:54:48.041Z,7.70
2018-12-31T14:57:16.520Z,7.70
2018-12-31T14:59:45.254Z,7.70
2018-12-31T15:02:13.695Z,7.60
2018-12-31T15:04:42.170Z,7.60
2018-12-31T15:07:10.901Z,7.60
2018-12-31T15:09:39.422Z,7.50
2018-12-31T15:12:07.943Z,7.50
2018-12-31T15:14:36.421Z,7.40
2018-12-31T15:17:04.957Z,7.40
2018-12-31T15:19:33.788Z,7.30
2018-12-31T15:22:02.242Z,7.30
2018-12-31T15:24:30.782Z,7.30
2018-12-31T15:26:59.316Z,7.30
2018-12-31T15:29:27.839Z,7.30
2018-12-31T15:31:56.307Z,7.30
2018-12-31T15:34:24.849Z,7.30
2018-12-31T15:36:53.323Z,7.30
2018-12-31T15:39:21.860Z,7.20
2018-12-31T15:41:50.415Z,7.20
2018-12-31T15:44:18.963Z,7.30
2018-12-31T15:46:47.435Z,7.30
2018-12-31T15:49:15.958Z,7.20
2018-12-31T15:51:44.487Z,7.20
2018-12-31T15:54:13.009Z,7.20
2018-12-31T15:56:42.507Z,7.20
2018-12-31T15:59:11.265Z,7.20
2018-12-31T16:01:39.818Z,7.20
2018-12-31T16:04:08.375Z,7.20
2018-12-31T16:06:36.957Z,7.20
2018-12-31T16:11:19.111Z,7.20
2018-12-31T16:13:59.804Z,7.20
2018-12-31T16:16:40.705Z,7.20
2018-12-31T16:19:21.633Z,7.20
2018-12-31T16:22:02.106Z,7.20
2018-12-31T16:24:42.887Z,7.20
2018-12-31T16:27:23.329Z,7.20
2018-12-31T16:30:04.128Z,7.20
2018-12-31T16:32:44.927Z,7.30
2018-12-31T16:35:26.083Z,7.40
2018-12-31T16:38:07.111Z,7.30
2018-12-31T16:40:48.589Z,7.30
2018-12-31T16:43:29.158Z,7.30
2018-12-31T16:46:10.145Z,7.30
2018-12-31T16:48:51.017Z,7.30
2018-12-31T16:51:31.991Z,7.30
2018-12-31T16:54:12.769Z,7.30
2018-12-31T16:56:53.663Z,7.20
2018-12-31T16:59:34.592Z,7.30
2018-12-31T17:02:15.379Z,7.20
2018-12-31T17:04:55.984Z,7.20
2018-12-31T17:07:37.057Z,7.20
2018-12-31T17:10:17.698Z,7.10
2018-12-31T17:12:58.643Z,7.10
2018-12-31T17:15:39.549Z,7.00
2018-12-31T17:18:20.079Z,7.00
2018-12-31T17:21:01.049Z,7.00
2018-12-31T17:23:41.378Z,6.90
2018-12-31T17:26:22.328Z,6.90
2018-12-31T17:29:02.897Z,6.90
2018-12-31T17:31:43.916Z,6.90
2018-12-31T17:34:24.408Z,6.90
2018-12-31T17:37:04.974Z,6.90
2018-12-31T17:39:45.800Z,6.80
2018-12-31T17:42:26.605Z,6.80
2018-12-31T17:45:07.290Z,6.80
2018-12-31T17:47:48.121Z,6.80
2018-12-31T17:50:28.755Z,6.80
2018-12-31T17:53:09.447Z,6.80
2018-12-31T17:55:50.295Z,6.80
2018-12-31T17:58:31.019Z,6.80
2018-12-31T18:01:11.969Z,6.80
2018-12-31T18:03:52.799Z,6.80
2018-12-31T18:06:33.411Z,6.90
2018-12-31T18:09:14.395Z,6.80
2018-12-31T18:11:55.186Z,6.90
2018-12-31T18:14:35.795Z,6.80
2018-12-31T18:17:16.390Z,6.80
2018-12-31T18:19:58.838Z,6.80
2018-12-31T18:22:40.158Z,6.80
2018-12-31T18:25:20.976Z,5.60
2018-12-31T18:28:01.797Z,6.80
2018-12-31T18:30:42.811Z,6.80
2018-12-31T18:33:23.569Z,6.70
2018-12-31T18:36:04.373Z,6.70
2018-12-31T18:38:45.535Z,6.70
2018-12-31T18:41:26.398Z,6.70
2018-12-31T18:46:50.188Z,6.70
2018-12-31T18:49:30.985Z,6.70
2018-12-31T18:52:11.642Z,6.70
2018-12-31T18:54:52.359Z,6.70
2018-12-31T18:57:33.303Z,6.70
2018-12-31T19:00:14.149Z,6.70
2018-12-31T19:02:54.902Z,6.70
2018-12-31T19:05:35.674Z,6.70
2018-12-31T19:08:16.400Z,6.70
2018-12-31T19:10:57.259Z,6.70
2018-12-31T19:13:38.216Z,6.80
2018-12-31T19:16:19.438Z,6.80
2018-12-31T19:19:00.493Z,6.80
2018-12-31T19:21:41.345Z,6.80
2018-12-31T19:24:21.975Z,6.80
2018-12-31T19:27:03.016Z,6.90
2018-12-31T19:29:43.803Z,6.80
2018-12-31T19:32:24.990Z,6.90
2018-12-31T19:37:55.015Z,6.80
2018-12-31T19:40:35.766Z,6.80
2018-12-31T19:43:16.878Z,6.80
2018-12-31T19:45:57.600Z,6.80
2018-12-31T19:48:38.565Z,6.80
2018-12-31T19:51:19.506Z,6.80
2018-12-31T19:54:00.385Z,6.80
2018-12-31T19:56:41.267Z,6.80
2018-12-31T19:59:22.072Z,6.80
2018-12-31T20:02:02.733Z,6.80
2018-12-31T20:04:43.640Z,6.80
2018-12-31T20:07:24.688Z,6.90
2018-12-31T20:10:05.552Z,6.90
2018-12-31T20:12:46.442Z,6.90
2018-12-31T20:15:27.325Z,6.90
2018-12-31T20:18:08.075Z,6.90
2018-12-31T20:20:49.065Z,6.90
2018-12-31T20:23:30.014Z,6.90
2018-12-31T20:26:10.977Z,6.90
2018-12-31T20:28:51.769Z,6.90
2018-12-31T20:31:32.831Z,6.90
2018-12-31T20:34:13.558Z,6.90
2018-12-31T20:36:54.403Z,6.90
2018-12-31T20:39:35.316Z,6.90
2018-12-31T20:42:16.737Z,6.90
2018-12-31T20:44:57.349Z,6.90
2018-12-31T20:47:38.123Z,6.90
2018-12-31T20:50:19.059Z,6.90
2018-12-31T20:52:47.610Z,6.90
2018-12-31T20:58:28.515Z,6.90
2018-12-31T21:01:16.349Z,6.90
2018-12-31T21:04:05.855Z,6.90
2018-12-31T21:06:46.613Z,6.90
2018-12-31T21:09:28.841Z,6.90
2018-12-31T21:12:09.761Z,6.90
2018-12-31T21:14:50.293Z,6.90
2018-12-31T21:17:30.912Z,6.90
2018-12-31T21:32:06.166Z,6.90
2018-12-31T21:37:39.761Z,6.90
2018-12-31T22:01:04.403Z,7.00
2018-12-31T22:27:01.195Z,6.90
2018-12-31T22:29:46.515Z,6.90
2018-12-31T22:35:53.590Z,6.90
2018-12-31T22:39:06.396Z,6.90
2018-12-31T22:41:17.561Z,6.90
2018-12-31T22:44:30.137Z,6.90
2018-12-31T22:50:21.987Z,6.90
2018-12-31T22:55:29.292Z,6.90
